createdAt,value
2018-09-17T00:00:11.580Z,12.50
2018-09-17T00:02:40.159Z,12.40
2018-09-17T00:05:08.375Z,12.40
2018-09-17T00:07:36.561Z,12.40
2018-09-17T00:10:05.832Z,12.40
2018-09-17T00:12:34.033Z,12.40
2018-09-17T00:15:02.189Z,12.30
2018-09-17T00:17:30.589Z,12.40
2018-09-17T00:19:58.758Z,12.40
2018-09-17T00:22:27.145Z,12.30
2018-09-17T00:24:55.687Z,12.30
2018-09-17T00:27:23.805Z,12.20
2018-09-17T00:29:51.955Z,12.20
2018-09-17T00:32:20.163Z,12.10
2018-09-17T00:34:48.321Z,12.10
2018-09-17T00:37:16.453Z,12.10
2018-09-17T00:39:44.713Z,12.00
2018-09-17T00:42:13.139Z,11.90
2018-09-17T00:44:41.307Z,11.80
2018-09-17T00:47:09.519Z,11.80
2018-09-17T00:49:37.752Z,11.70
2018-09-17T00:52:05.957Z,11.70
2018-09-17T00:54:34.394Z,11.60
2018-09-17T00:57:02.590Z,11.50
2018-09-17T00:59:30.774Z,11.50
2018-09-17T01:01:59.235Z,11.60
2018-09-17T01:04:27.406Z,11.70
2018-09-17T01:06:55.565Z,11.70
2018-09-17T01:09:29.344Z,11.70
2018-09-17T01:11:57.466Z,11.70
2018-09-17T01:14:25.851Z,11.50
2018-09-17T01:16:54.528Z,11.40
2018-09-17T01:19:22.691Z,11.40
2018-09-17T01:21:50.907Z,11.40
2018-09-17T01:24:19.121Z,11.40
2018-09-17T01:26:47.289Z,11.30
2018-09-17T01:29:15.687Z,11.30
2018-09-17T01:31:44.462Z,11.40
2018-09-17T01:34:12.755Z,11.50
2018-09-17T01:36:41.133Z,11.50
2018-09-17T01:39:11.156Z,11.50
2018-09-17T01:41:40.081Z,11.50
2018-09-17T01:44:08.516Z,11.50
2018-09-17T01:46:37.378Z,11.30
2018-09-17T01:49:05.855Z,11.10
2018-09-17T01:51:33.985Z,11.10
2018-09-17T01:54:02.196Z,11.10
2018-09-17T01:56:30.384Z,11.00
2018-09-17T01:58:58.502Z,11.00
2018-09-17T02:01:26.820Z,10.90
2018-09-17T02:03:54.988Z,11.00
2018-09-17T02:06:23.150Z,11.00
2018-09-17T02:08:51.639Z,11.10
2018-09-17T02:11:21.737Z,11.10
2018-09-17T02:13:49.921Z,11.10
2018-09-17T02:16:18.077Z,11.20
2018-09-17T02:18:46.782Z,11.20
2018-09-17T02:21:15.053Z,11.10
2018-09-17T02:23:43.717Z,11.20
2018-09-17T02:26:12.326Z,11.10
2018-09-17T02:28:40.698Z,11.10
2018-09-17T02:31:08.997Z,11.00
2018-09-17T02:33:37.165Z,10.90
2018-09-17T02:36:05.570Z,10.80
2018-09-17T02:38:33.754Z,10.90
2018-09-17T02:41:02.050Z,10.90
2018-09-17T02:43:30.302Z,10.90
2018-09-17T02:45:58.452Z,10.90
2018-09-17T02:48:26.610Z,10.90
2018-09-17T02:50:55.388Z,10.90
2018-09-17T02:53:24.019Z,11.00
2018-09-17T02:55:52.199Z,11.00
2018-09-17T02:58:20.508Z,11.00
2018-09-17T03:00:52.951Z,11.00
2018-09-17T03:03:21.193Z,11.00
2018-09-17T03:05:52.894Z,11.00
2018-09-17T03:08:21.185Z,11.00
2018-09-17T03:10:49.519Z,11.00
2018-09-17T03:13:17.953Z,11.00
2018-09-17T03:15:48.951Z,10.90
2018-09-17T03:18:22.144Z,10.90
2018-09-17T03:20:50.306Z,10.90
2018-09-17T03:23:18.540Z,10.90
2018-09-17T03:25:46.812Z,10.80
2018-09-17T03:28:15.129Z,10.80
2018-09-17T03:30:43.785Z,10.70
2018-09-17T03:33:11.966Z,10.70
2018-09-17T03:35:40.465Z,10.70
2018-09-17T03:38:29.141Z,10.70
2018-09-17T03:40:57.530Z,10.70
2018-09-17T03:43:25.691Z,10.70
2018-09-17T03:45:54.149Z,10.70
2018-09-17T03:48:22.326Z,10.70
2018-09-17T03:50:50.493Z,10.70
2018-09-17T03:53:19.108Z,10.60
2018-09-17T03:55:47.277Z,10.60
2018-09-17T03:58:16.069Z,10.60
2018-09-17T04:00:44.276Z,10.70
2018-09-17T04:03:12.497Z,10.70
2018-09-17T04:05:40.691Z,10.60
2018-09-17T04:08:08.865Z,10.50
2018-09-17T04:10:37.035Z,10.50
2018-09-17T04:13:05.194Z,10.40
2018-09-17T04:15:33.554Z,10.40
2018-09-17T04:18:01.749Z,10.50
2018-09-17T04:20:29.978Z,10.50
2018-09-17T04:22:58.249Z,10.50
2018-09-17T04:25:26.786Z,10.50
2018-09-17T04:27:54.953Z,10.60
2018-09-17T04:30:24.241Z,10.50
2018-09-17T04:32:53.273Z,10.50
2018-09-17T04:35:22.093Z,10.40
2018-09-17T04:37:50.346Z,10.50
2018-09-17T04:40:18.490Z,10.60
2018-09-17T04:42:46.711Z,10.50
2018-09-17T04:45:15.129Z,10.50
2018-09-17T04:47:43.496Z,10.30
2018-09-17T04:50:11.877Z,10.20
2018-09-17T04:52:40.673Z,10.00
2018-09-17T04:55:08.898Z,9.90
2018-09-17T04:57:37.030Z,9.80
2018-09-17T05:00:06.897Z,9.80
2018-09-17T05:02:35.022Z,9.90
2018-09-17T05:05:03.205Z,9.90
2018-09-17T05:07:31.380Z,9.90
2018-09-17T05:09:59.554Z,10.00
2018-09-17T05:12:27.901Z,10.00
2018-09-17T05:14:56.334Z,10.10
2018-09-17T05:17:24.836Z,10.10
2018-09-17T05:19:53.304Z,10.10
2018-09-17T05:22:21.742Z,10.10
2018-09-17T05:24:49.936Z,10.20
2018-09-17T05:27:18.084Z,10.30
2018-09-17T05:29:46.389Z,10.30
2018-09-17T05:32:14.577Z,10.40
2018-09-17T05:34:42.741Z,10.50
2018-09-17T05:37:11.133Z,10.60
2018-09-17T05:39:39.270Z,10.50
2018-09-17T05:42:07.532Z,10.50
2018-09-17T05:44:35.748Z,10.50
2018-09-17T05:47:03.918Z,10.60
2018-09-17T05:49:32.518Z,10.60
2018-09-17T05:52:01.077Z,10.70
2018-09-17T05:54:29.241Z,10.80
2018-09-17T05:56:57.421Z,10.80
2018-09-17T05:59:26.765Z,11.00
2018-09-17T06:01:54.845Z,11.10
2018-09-17T06:04:23.082Z,11.10
2018-09-17T06:06:51.266Z,11.20
2018-09-17T06:09:19.905Z,11.30
2018-09-17T06:11:48.192Z,11.50
2018-09-17T06:14:16.309Z,11.70
2018-09-17T06:16:44.480Z,11.80
2018-09-17T06:19:12.671Z,12.00
2018-09-17T06:21:41.864Z,12.10
2018-09-17T06:24:10.113Z,12.30
2018-09-17T06:26:38.904Z,12.40
2018-09-17T06:29:07.010Z,12.60
2018-09-17T06:31:35.162Z,12.70
2018-09-17T06:34:03.326Z,12.90
2018-09-17T06:36:31.493Z,13.00
2018-09-17T06:38:59.673Z,13.10
2018-09-17T06:41:28.527Z,13.30
2018-09-17T06:43:56.650Z,13.50
2018-09-17T06:46:25.518Z,13.80
2018-09-17T06:48:54.094Z,14.10
2018-09-17T06:51:22.341Z,14.50
2018-09-17T06:53:50.644Z,14.80
2018-09-17T06:56:19.230Z,14.90
2018-09-17T06:58:47.829Z,14.80
2018-09-17T07:01:16.039Z,14.80
2018-09-17T07:03:44.190Z,14.90
2018-09-17T07:06:12.366Z,15.30
2018-09-17T07:08:40.707Z,15.90
2018-09-17T07:11:09.608Z,16.70
2018-09-17T07:13:38.011Z,17.50
2018-09-17T07:16:06.593Z,18.10
2018-09-17T07:18:35.281Z,18.70
2018-09-17T07:21:03.546Z,18.60
2018-09-17T07:23:32.463Z,17.80
2018-09-17T07:26:00.841Z,17.60
2018-09-17T07:28:28.995Z,17.30
2018-09-17T07:30:57.166Z,17.00
2018-09-17T07:33:25.825Z,17.20
2018-09-17T07:35:54.082Z,17.50
2018-09-17T07:38:23.291Z,18.30
2018-09-17T07:40:52.334Z,19.10
2018-09-17T07:43:21.218Z,19.20
2018-09-17T07:45:49.698Z,19.50
2018-09-17T07:48:18.116Z,19.90
2018-09-17T07:50:46.268Z,19.90
2018-09-17T07:53:14.472Z,20.20
2018-09-17T07:55:42.619Z,20.60
2018-09-17T07:58:10.784Z,21.00
2018-09-17T08:00:39.232Z,21.30
2018-09-17T08:03:07.491Z,22.50
2018-09-17T08:05:35.933Z,22.90
2018-09-17T08:08:04.099Z,22.80
2018-09-17T08:10:32.896Z,22.90
2018-09-17T08:13:01.962Z,22.50
2018-09-17T08:15:30.174Z,22.70
2018-09-17T08:17:59.122Z,23.10
2018-09-17T08:20:27.313Z,23.70
2018-09-17T08:22:57.209Z,24.00
2018-09-17T08:25:26.424Z,24.30
2018-09-17T08:27:54.601Z,24.20
2018-09-17T08:30:23.288Z,24.00
2018-09-17T08:32:51.515Z,24.10
2018-09-17T08:35:19.733Z,24.40
2018-09-17T08:37:47.929Z,24.70
2018-09-17T08:40:16.290Z,25.60
2018-09-17T08:42:44.470Z,25.50
2018-09-17T08:45:12.635Z,25.50
2018-09-17T08:47:41.793Z,25.20
2018-09-17T08:50:09.934Z,25.00
2018-09-17T08:52:38.153Z,24.90
2018-09-17T08:55:10.567Z,24.70
2018-09-17T08:57:44.223Z,24.60
2018-09-17T09:00:17.519Z,24.80
2018-09-17T09:02:54.729Z,24.80
2018-09-17T09:05:28.726Z,25.20
2018-09-17T09:08:00.179Z,24.90
2018-09-17T09:10:33.858Z,25.30
2018-09-17T09:13:07.609Z,25.50
2018-09-17T09:15:39.032Z,25.20
2018-09-17T09:18:08.395Z,25.30
2018-09-17T09:20:37.374Z,25.20
2018-09-17T09:23:05.817Z,25.90
2018-09-17T09:25:34.255Z,26.50
2018-09-17T09:28:03.136Z,26.60
2018-09-17T09:30:31.330Z,26.60
2018-09-17T09:32:59.652Z,27.20
2018-09-17T09:35:27.894Z,27.60
2018-09-17T09:37:56.433Z,28.20
2018-09-17T09:40:24.617Z,27.40
2018-09-17T09:42:52.770Z,27.00
2018-09-17T09:45:21.550Z,26.20
2018-09-17T09:47:49.763Z,26.40
2018-09-17T09:50:17.908Z,26.70
2018-09-17T09:52:46.688Z,26.20
2018-09-17T09:55:14.827Z,26.00
2018-09-17T09:57:43.065Z,26.10
2018-09-17T10:00:17.314Z,26.50
2018-09-17T10:02:51.845Z,27.00
2018-09-17T10:05:20.529Z,27.40
2018-09-17T10:07:48.930Z,28.70
2018-09-17T10:10:22.563Z,28.40
2018-09-17T10:14:20.588Z,28.20
2018-09-17T10:16:54.937Z,27.80
2018-09-17T10:19:24.520Z,27.80
2018-09-17T10:21:52.725Z,27.70
2018-09-17T10:24:21.622Z,27.70
2018-09-17T10:26:49.927Z,27.40
2018-09-17T10:29:18.449Z,27.60
2018-09-17T10:31:47.166Z,27.70
2018-09-17T10:36:53.570Z,27.20
2018-09-17T10:39:21.752Z,27.10
2018-09-17T10:41:50.560Z,27.60
2018-09-17T10:44:18.744Z,26.60
2018-09-17T10:46:46.917Z,27.00
2018-09-17T10:49:17.044Z,27.40
2018-09-17T10:51:45.769Z,27.90
2018-09-17T10:54:13.991Z,28.50
2018-09-17T10:56:42.659Z,28.50
2018-09-17T11:06:13.724Z,27.00
2018-09-17T11:08:42.395Z,27.70
2018-09-17T11:11:11.464Z,28.10
2018-09-17T11:13:39.894Z,28.00
2018-09-17T11:16:09.016Z,28.00
2018-09-17T11:18:38.337Z,27.60
2018-09-17T11:21:07.077Z,27.30
2018-09-17T11:23:35.782Z,26.80
2018-09-17T11:26:04.144Z,26.50
2018-09-17T11:28:32.434Z,26.40
2018-09-17T11:31:00.624Z,26.80
2018-09-17T11:33:28.830Z,26.60
2018-09-17T11:35:57.106Z,26.80
2018-09-17T11:38:27.194Z,26.70
2018-09-17T11:40:55.357Z,26.90
2018-09-17T11:43:23.546Z,27.10
2018-09-17T11:45:51.719Z,27.20
2018-09-17T11:48:22.217Z,27.10
2018-09-17T11:50:50.846Z,27.60
2018-09-17T11:53:19.328Z,27.50
2018-09-17T11:55:47.522Z,27.60
2018-09-17T11:58:15.723Z,27.60
2018-09-17T12:00:49.394Z,27.50
2018-09-17T12:03:23.527Z,27.60
2018-09-17T12:05:57.462Z,26.80
2018-09-17T12:08:26.584Z,26.70
2018-09-17T12:10:55.449Z,27.20
2018-09-17T12:13:23.669Z,26.90
2018-09-17T12:15:51.833Z,27.10
2018-09-17T12:18:20.505Z,26.90
2018-09-17T12:20:48.738Z,26.40
2018-09-17T12:23:17.030Z,26.10
2018-09-17T12:25:45.644Z,25.50
2018-09-17T12:28:13.869Z,26.00
2018-09-17T12:30:42.689Z,25.70
2018-09-17T12:33:11.017Z,25.40
2018-09-17T12:35:39.664Z,26.10
2018-09-17T12:38:07.875Z,26.50
2018-09-17T12:40:36.319Z,25.90
2018-09-17T12:43:04.629Z,25.50
2018-09-17T12:45:32.805Z,25.40
2018-09-17T12:48:01.255Z,25.50
2018-09-17T12:50:29.458Z,25.60
2018-09-17T12:52:59.541Z,25.80
2018-09-17T12:55:28.046Z,25.60
2018-09-17T12:57:56.269Z,25.40
2018-09-17T13:00:25.185Z,25.30
2018-09-17T13:02:55.046Z,25.30
2018-09-17T13:05:23.676Z,25.00
2018-09-17T13:07:51.922Z,25.20
2018-09-17T13:10:20.456Z,25.20
2018-09-17T13:12:49.650Z,25.30
2018-09-17T13:15:17.930Z,25.20
2018-09-17T13:17:46.525Z,25.10
2018-09-17T13:20:14.732Z,25.20
2018-09-17T13:22:42.937Z,25.10
2018-09-17T13:25:15.491Z,25.10
2018-09-17T13:27:44.479Z,25.20
2018-09-17T13:30:12.738Z,24.90
2018-09-17T13:32:41.148Z,24.60
2018-09-17T13:35:11.022Z,24.70
2018-09-17T13:37:39.333Z,24.70
2018-09-17T13:40:07.492Z,24.90
2018-09-17T13:42:36.075Z,24.90
2018-09-17T13:45:04.319Z,25.10
2018-09-17T13:47:36.954Z,25.20
2018-09-17T13:50:06.515Z,25.00
2018-09-17T13:52:34.809Z,24.80
2018-09-17T13:55:03.453Z,24.60
2018-09-17T13:57:32.375Z,24.60
2018-09-17T14:00:00.811Z,24.40
2018-09-17T14:02:31.121Z,24.30
2018-09-17T14:04:59.420Z,24.20
2018-09-17T14:07:28.157Z,24.20
2018-09-17T14:09:57.702Z,24.30
2018-09-17T14:12:31.973Z,24.30
2018-09-17T14:15:00.192Z,24.20
2018-09-17T14:17:28.865Z,24.10
2018-09-17T14:19:58.161Z,24.10
2018-09-17T14:22:29.954Z,24.10
2018-09-17T14:24:58.333Z,24.20
2018-09-17T14:27:42.885Z,24.20
2018-09-17T14:30:11.108Z,24.20
2018-09-17T14:32:44.884Z,24.30
2018-09-17T14:35:13.303Z,24.20
2018-09-17T14:37:41.552Z,24.20
2018-09-17T14:40:09.943Z,24.20
2018-09-17T14:42:38.649Z,24.20
2018-09-17T14:45:07.067Z,24.10
2018-09-17T14:47:35.231Z,24.10
2018-09-17T14:50:03.455Z,24.10
2018-09-17T14:52:34.899Z,24.00
2018-09-17T14:55:03.611Z,24.00
2018-09-17T14:57:31.866Z,24.00
2018-09-17T15:00:00.100Z,24.00
2018-09-17T15:02:28.734Z,23.80
2018-09-17T15:04:57.015Z,23.70
2018-09-17T15:07:30.131Z,23.70
2018-09-17T15:09:58.697Z,23.60
2018-09-17T15:12:27.002Z,23.50
2018-09-17T15:14:55.609Z,23.50
2018-09-17T15:17:23.780Z,23.40
2018-09-17T15:19:51.962Z,23.50
2018-09-17T15:22:21.328Z,23.50
2018-09-17T15:24:49.556Z,23.40
2018-09-17T15:27:25.549Z,23.40
2018-09-17T15:29:53.734Z,23.40
2018-09-17T15:32:21.956Z,23.30
2018-09-17T15:34:50.329Z,23.30
2018-09-17T15:37:18.597Z,23.40
2018-09-17T15:39:46.765Z,23.30
2018-09-17T15:42:15.017Z,23.20
2018-09-17T15:44:43.972Z,23.10
2018-09-17T15:47:12.206Z,23.20
2018-09-17T15:49:40.994Z,23.10
2018-09-17T15:52:09.251Z,23.00
2018-09-17T15:54:37.446Z,23.00
2018-09-17T15:57:05.698Z,23.00
2018-09-17T15:59:33.898Z,23.00
2018-09-17T16:02:02.037Z,22.90
2018-09-17T16:04:30.245Z,22.90
2018-09-17T16:06:58.526Z,22.90
2018-09-17T16:09:26.658Z,22.80
2018-09-17T16:11:54.870Z,22.70
2018-09-17T16:14:23.434Z,22.70
2018-09-17T16:16:51.628Z,22.60
2018-09-17T16:19:19.825Z,22.60
2018-09-17T16:21:48.074Z,22.50
2018-09-17T16:24:16.835Z,22.30
2018-09-17T16:26:45.113Z,22.20
2018-09-17T16:29:13.306Z,22.10
2018-09-17T16:31:41.486Z,22.00
2018-09-17T16:34:09.712Z,21.90
2018-09-17T16:36:38.524Z,21.80
2018-09-17T16:39:08.095Z,21.70
2018-09-17T16:41:36.340Z,21.60
2018-09-17T16:44:04.501Z,21.60
2018-09-17T16:46:33.489Z,21.50
2018-09-17T16:49:01.831Z,21.40
2018-09-17T16:51:30.226Z,21.30
2018-09-17T16:53:58.458Z,21.10
2018-09-17T16:56:26.778Z,20.90
2018-09-17T16:58:55.198Z,20.80
2018-09-17T17:01:23.545Z,20.60
2018-09-17T17:03:52.394Z,20.40
2018-09-17T17:06:20.640Z,20.30
2018-09-17T17:08:48.858Z,20.20
2018-09-17T17:11:17.822Z,20.10
2018-09-17T17:13:46.579Z,20.00
2018-09-17T17:16:15.315Z,19.90
2018-09-17T17:18:43.764Z,19.80
2018-09-17T17:21:11.980Z,19.70
2018-09-17T17:23:41.294Z,19.60
2018-09-17T17:26:09.680Z,19.50
2018-09-17T17:28:39.443Z,19.40
2018-09-17T17:31:07.619Z,19.40
2018-09-17T17:33:35.987Z,19.30
2018-09-17T17:36:04.628Z,19.20
2018-09-17T17:38:32.898Z,19.10
2018-09-17T17:41:01.751Z,19.00
2018-09-17T17:43:30.118Z,18.90
2018-09-17T17:45:58.424Z,19.00
2018-09-17T17:48:26.914Z,18.90
2018-09-17T17:50:55.070Z,18.80
2018-09-17T17:53:23.259Z,18.70
2018-09-17T17:55:51.815Z,18.50
2018-09-17T17:58:20.011Z,18.40
2018-09-17T18:00:48.844Z,18.30
2018-09-17T18:03:17.070Z,18.30
2018-09-17T18:05:45.637Z,18.20
2018-09-17T18:08:14.153Z,18.10
2018-09-17T18:10:42.630Z,18.00
2018-09-17T18:13:11.384Z,17.90
2018-09-17T18:15:39.743Z,17.80
2018-09-17T18:18:07.972Z,17.80
2018-09-17T18:20:36.461Z,17.80
2018-09-17T18:23:04.836Z,17.80
2018-09-17T18:25:32.992Z,17.80
2018-09-17T18:28:01.686Z,17.80
2018-09-17T18:30:29.850Z,17.80
2018-09-17T18:32:58.089Z,17.70
2018-09-17T18:35:26.192Z,17.70
2018-09-17T18:37:54.575Z,17.70
2018-09-17T18:40:24.409Z,17.60
2018-09-17T18:42:52.602Z,17.60
2018-09-17T18:45:20.969Z,17.40
2018-09-17T18:47:49.234Z,17.20
2018-09-17T18:50:17.485Z,17.10
2018-09-17T18:52:45.659Z,17.10
2018-09-17T18:55:14.467Z,17.10
2018-09-17T18:57:43.362Z,17.10
2018-09-17T19:00:11.662Z,17.00
2018-09-17T19:02:40.793Z,17.00
2018-09-17T19:05:08.994Z,17.00
2018-09-17T19:07:37.410Z,16.90
2018-09-17T19:10:06.865Z,16.90
2018-09-17T19:12:35.384Z,16.90
2018-09-17T19:15:10.009Z,16.70
2018-09-17T19:17:40.436Z,16.60
2018-09-17T19:20:10.210Z,16.30
2018-09-17T19:22:43.972Z,16.10
2018-09-17T19:25:13.691Z,15.90
2018-09-17T19:27:47.813Z,15.90
2018-09-17T19:30:17.875Z,15.90
2018-09-17T19:32:46.647Z,15.90
2018-09-17T19:35:14.911Z,16.00
2018-09-17T19:37:50.212Z,16.10
2018-09-17T19:40:19.956Z,15.90
2018-09-17T19:42:48.946Z,15.80
2018-09-17T19:45:22.884Z,15.80
2018-09-17T19:47:52.247Z,15.80
2018-09-17T19:50:25.945Z,15.80
2018-09-17T19:52:54.157Z,15.90
2018-09-17T19:55:22.947Z,16.00
2018-09-17T19:57:57.124Z,15.80
2018-09-17T20:00:25.985Z,15.90
2018-09-17T20:02:54.338Z,15.70
2018-09-17T20:05:28.416Z,15.60
2018-09-17T20:07:56.690Z,15.70
2018-09-17T20:10:25.052Z,15.70
2018-09-17T20:12:53.550Z,15.70
2018-09-17T20:15:21.874Z,15.70
2018-09-17T20:17:50.066Z,15.70
2018-09-17T20:20:18.285Z,15.50
2018-09-17T20:22:46.692Z,15.40
2018-09-17T20:25:15.299Z,15.30
2018-09-17T20:27:43.664Z,15.10
2018-09-17T20:30:12.144Z,15.00
2018-09-17T20:32:41.384Z,15.00
2018-09-17T20:35:09.506Z,15.00
2018-09-17T20:37:38.443Z,15.10
2018-09-17T20:40:06.625Z,15.10
2018-09-17T20:42:34.786Z,15.10
2018-09-17T20:45:02.967Z,15.10
2018-09-17T20:47:31.093Z,15.00
2018-09-17T20:49:59.694Z,15.10
2018-09-17T20:52:27.875Z,15.10
2018-09-17T20:54:56.258Z,15.00
2018-09-17T20:57:24.724Z,15.00
2018-09-17T20:59:52.921Z,15.00
2018-09-17T21:02:21.096Z,15.00
2018-09-17T21:04:49.285Z,14.90
2018-09-17T21:07:17.657Z,14.80
2018-09-17T21:09:46.262Z,14.70
2018-09-17T21:12:14.624Z,14.60
2018-09-17T21:14:42.777Z,14.70
2018-09-17T21:17:11.112Z,14.60
2018-09-17T21:19:39.344Z,14.60
2018-09-17T21:22:07.657Z,14.60
2018-09-17T21:24:35.797Z,14.60
2018-09-17T21:27:03.961Z,14.40
2018-09-17T21:29:32.129Z,14.30
2018-09-17T21:32:00.342Z,14.10
2018-09-17T21:34:29.266Z,14.20
2018-09-17T21:36:58.180Z,14.20
2018-09-17T21:39:26.275Z,14.30
2018-09-17T21:41:54.694Z,14.30
2018-09-17T21:44:23.014Z,14.30
2018-09-17T21:46:51.195Z,14.20
2018-09-17T21:49:19.386Z,14.30
2018-09-17T21:51:47.535Z,13.90
2018-09-17T21:54:15.738Z,13.60
2018-09-17T21:56:43.913Z,13.60
2018-09-17T21:59:12.094Z,13.60
2018-09-17T22:01:40.255Z,13.70
2018-09-17T22:04:08.427Z,13.70
2018-09-17T22:06:36.616Z,13.80
2018-09-17T22:09:06.670Z,13.80
2018-09-17T22:11:34.914Z,13.80
2018-09-17T22:14:03.091Z,13.70
2018-09-17T22:16:31.253Z,13.60
2018-09-17T22:18:59.506Z,13.60
2018-09-17T22:21:27.677Z,13.60
2018-09-17T22:23:55.894Z,13.60
2018-09-17T22:26:24.312Z,13.60
2018-09-17T22:28:52.626Z,13.60
2018-09-17T22:31:21.114Z,13.50
2018-09-17T22:33:49.562Z,13.50
2018-09-17T22:36:17.830Z,13.50
2018-09-17T22:38:46.254Z,13.50
2018-09-17T22:41:14.694Z,13.50
2018-09-17T22:43:43.178Z,13.40
2018-09-17T22:46:11.422Z,13.10
2018-09-17T22:48:40.475Z,13.10
2018-09-17T22:51:09.449Z,13.00
2018-09-17T22:53:40.048Z,13.00
2018-09-17T22:56:08.326Z,13.00
2018-09-17T22:58:37.368Z,13.10
2018-09-17T23:01:05.679Z,13.10
2018-09-17T23:03:34.022Z,13.10
2018-09-17T23:06:02.213Z,13.00
2018-09-17T23:08:30.391Z,12.90
2018-09-17T23:10:58.721Z,12.80
2018-09-17T23:13:27.207Z,12.60
2018-09-17T23:15:55.495Z,12.50
2018-09-17T23:18:23.674Z,12.20
2018-09-17T23:20:52.002Z,12.10
2018-09-17T23:23:20.254Z,12.00
2018-09-17T23:25:48.435Z,11.90
2018-09-17T23:28:17.214Z,11.70
2018-09-17T23:30:45.381Z,11.70
2018-09-17T23:33:14.206Z,11.60
2018-09-17T23:35:42.735Z,11.60
2018-09-17T23:38:10.926Z,11.60
2018-09-17T23:40:39.115Z,11.60
2018-09-17T23:43:07.550Z,11.60
2018-09-17T23:46:38.830Z,11.60
2018-09-17T23:49:09.947Z,11.60
2018-09-17T23:51:38.962Z,11.60
2018-09-17T23:54:07.255Z,11.50
2018-09-17T23:56:35.418Z,11.50
2018-09-17T23:59:03.558Z,11.50
